createdAt,value
2017-06-09T00:00:37.673Z,3.60
2017-06-09T00:03:06.091Z,3.00
2017-06-09T00:05:34.543Z,3.60
2017-06-09T00:08:02.972Z,3.20
2017-06-09T00:10:32.195Z,3.10
2017-06-09T00:13:01.386Z,2.87
2017-06-09T00:15:30.604Z,4.00
2017-06-09T00:17:59.066Z,3.63
2017-06-09T00:20:28.267Z,3.10
2017-06-09T00:22:57.526Z,3.30
2017-06-09T00:25:25.952Z,3.10
2017-06-09T00:27:54.386Z,3.57
2017-06-09T00:30:22.983Z,3.30
2017-06-09T00:32:51.483Z,2.93
2017-06-09T00:35:20.711Z,3.67
2017-06-09T00:37:49.209Z,3.43
2017-06-09T00:40:17.634Z,3.10
2017-06-09T00:42:46.076Z,3.30
2017-06-09T00:45:14.496Z,3.60
2017-06-09T00:47:43.011Z,2.90
2017-06-09T00:50:11.471Z,3.57
2017-06-09T00:52:39.900Z,3.50
2017-06-09T00:55:08.319Z,3.50
2017-06-09T00:57:36.753Z,3.33
2017-06-09T01:00:06.646Z,3.70
2017-06-09T01:02:35.843Z,2.77
2017-06-09T01:05:05.050Z,3.80
2017-06-09T01:07:34.254Z,3.20
2017-06-09T01:10:02.684Z,2.90
2017-06-09T01:12:31.235Z,3.40
2017-06-09T01:14:59.660Z,2.93
2017-06-09T01:17:28.227Z,2.83
2017-06-09T01:19:56.660Z,3.63
2017-06-09T01:22:25.840Z,2.90
2017-06-09T01:24:55.055Z,3.10
2017-06-09T01:27:24.276Z,3.23
2017-06-09T01:29:52.703Z,3.10
2017-06-09T01:32:21.155Z,2.93
2017-06-09T01:34:49.719Z,3.67
2017-06-09T01:37:18.143Z,2.93
2017-06-09T01:39:46.583Z,3.03
2017-06-09T01:42:15.159Z,3.43
2017-06-09T01:44:43.608Z,3.10
2017-06-09T01:47:12.051Z,2.97
2017-06-09T01:49:40.483Z,3.10
2017-06-09T01:52:09.695Z,3.27
2017-06-09T01:54:38.891Z,3.57
2017-06-09T01:57:08.100Z,3.10
2017-06-09T01:59:36.191Z,3.07
2017-06-09T02:02:04.618Z,3.90
2017-06-09T02:04:33.239Z,2.50
2017-06-09T02:07:01.678Z,2.83
2017-06-09T02:09:30.106Z,3.10
2017-06-09T02:11:58.178Z,3.37
2017-06-09T02:14:26.628Z,3.10
2017-06-09T02:16:55.050Z,2.80
2017-06-09T02:19:23.491Z,3.17
2017-06-09T02:21:51.915Z,3.47
2017-06-09T02:24:21.815Z,2.97
2017-06-09T02:26:50.256Z,3.00
2017-06-09T02:29:18.675Z,3.27
2017-06-09T02:31:47.114Z,3.47
2017-06-09T02:34:16.388Z,3.27
2017-06-09T02:36:44.802Z,3.53
2017-06-09T02:39:13.248Z,3.30
2017-06-09T02:41:41.678Z,2.93
2017-06-09T02:44:11.099Z,3.30
2017-06-09T02:46:39.547Z,3.40
2017-06-09T02:49:07.983Z,3.60
2017-06-09T02:51:36.418Z,3.20
2017-06-09T02:54:04.979Z,3.70
2017-06-09T02:56:33.399Z,3.40
2017-06-09T02:59:02.612Z,3.80
2017-06-09T03:01:31.039Z,3.60
2017-06-09T03:03:59.474Z,3.10
2017-06-09T03:06:27.907Z,3.70
2017-06-09T03:08:56.347Z,3.20
2017-06-09T03:11:24.779Z,3.33
2017-06-09T03:13:54.055Z,3.60
2017-06-09T03:16:21.812Z,3.40
2017-06-09T03:18:50.227Z,3.73
2017-06-09T03:21:18.676Z,3.57
2017-06-09T03:23:47.107Z,3.60
2017-06-09T03:26:15.554Z,3.57
2017-06-09T03:28:43.999Z,3.30
2017-06-09T03:31:12.252Z,3.30
2017-06-09T03:33:40.690Z,3.43
2017-06-09T03:36:09.124Z,3.10
2017-06-09T03:38:39.159Z,3.20
2017-06-09T03:41:07.679Z,3.40
2017-06-09T03:43:36.131Z,3.20
2017-06-09T03:46:04.572Z,2.80
2017-06-09T03:48:33.011Z,3.10
2017-06-09T03:51:01.482Z,2.83
2017-06-09T03:53:29.914Z,3.10
2017-06-09T03:55:58.363Z,3.50
2017-06-09T03:58:26.875Z,3.00
2017-06-09T04:00:55.338Z,3.20
2017-06-09T04:03:23.880Z,3.40
2017-06-09T04:05:52.398Z,3.83
2017-06-09T04:08:20.827Z,3.60
2017-06-09T04:10:50.057Z,2.93
2017-06-09T04:13:18.511Z,3.67
2017-06-09T04:15:47.821Z,3.77
2017-06-09T04:18:16.266Z,3.30
2017-06-09T04:20:44.687Z,3.40
2017-06-09T04:23:13.147Z,3.83
2017-06-09T04:25:42.335Z,3.83
2017-06-09T04:28:10.843Z,4.40
2017-06-09T04:30:40.047Z,4.00
2017-06-09T04:33:08.475Z,4.07
2017-06-09T04:35:36.927Z,3.93
2017-06-09T04:38:05.379Z,4.43
2017-06-09T04:40:34.599Z,3.57
2017-06-09T04:43:03.022Z,3.30
2017-06-09T04:45:32.176Z,3.70
2017-06-09T04:48:00.594Z,4.20
2017-06-09T04:50:29.143Z,4.30
2017-06-09T04:52:57.614Z,4.00
2017-06-09T04:55:26.822Z,3.83
2017-06-09T04:57:56.027Z,3.80
2017-06-09T05:00:24.491Z,3.90
2017-06-09T05:02:53.695Z,3.67
2017-06-09T05:05:22.123Z,3.93
2017-06-09T05:07:50.571Z,4.30
2017-06-09T05:10:20.101Z,3.87
2017-06-09T05:12:48.515Z,2.90
2017-06-09T05:15:16.964Z,3.43
2017-06-09T05:17:45.391Z,3.87
2017-06-09T05:20:13.623Z,2.70
2017-06-09T05:22:41.879Z,2.40
2017-06-09T05:25:10.115Z,2.40
2017-06-09T05:27:38.536Z,2.60
2017-06-09T05:30:06.983Z,2.33
2017-06-09T05:32:35.239Z,3.60
2017-06-09T05:35:03.691Z,2.90
2017-06-09T05:37:32.102Z,2.80
2017-06-09T05:40:00.558Z,2.43
2017-06-09T05:42:28.975Z,2.37
2017-06-09T05:44:57.450Z,3.10
2017-06-09T05:47:25.867Z,2.90
2017-06-09T05:49:54.304Z,2.67
2017-06-09T05:52:22.803Z,3.20
2017-06-09T05:54:51.191Z,2.20
2017-06-09T05:57:19.663Z,2.17
2017-06-09T05:59:48.108Z,2.50
2017-06-09T06:02:16.543Z,2.50
2017-06-09T06:04:45.007Z,2.13
2017-06-09T06:07:13.572Z,2.27
2017-06-09T06:09:41.987Z,3.13
2017-06-09T06:12:10.422Z,2.17
2017-06-09T06:14:38.859Z,1.90
2017-06-09T06:17:07.287Z,3.20
2017-06-09T06:19:35.822Z,2.50
2017-06-09T06:22:04.252Z,2.43
2017-06-09T06:24:32.671Z,2.50
2017-06-09T06:27:01.795Z,2.23
2017-06-09T06:29:30.231Z,2.47
2017-06-09T06:31:58.666Z,2.00
2017-06-09T06:34:27.224Z,2.23
2017-06-09T06:36:55.662Z,1.90
2017-06-09T06:39:24.090Z,1.70
2017-06-09T06:41:52.517Z,1.80
2017-06-09T06:44:20.947Z,2.10
2017-06-09T06:46:49.415Z,1.93
2017-06-09T06:49:17.866Z,1.90
2017-06-09T06:51:46.295Z,2.13
2017-06-09T06:54:14.711Z,2.40
2017-06-09T06:56:43.152Z,2.40
2017-06-09T06:59:11.586Z,2.20
2017-06-09T07:01:40.015Z,1.97
2017-06-09T07:04:08.447Z,1.80
2017-06-09T07:06:36.904Z,1.77
2017-06-09T07:09:04.992Z,1.60
2017-06-09T07:11:33.427Z,2.80
2017-06-09T07:14:01.865Z,1.90
2017-06-09T07:16:30.295Z,1.80
2017-06-09T07:18:58.727Z,2.10
2017-06-09T07:21:27.212Z,1.90
2017-06-09T07:23:55.635Z,1.83
2017-06-09T07:26:24.100Z,1.60
2017-06-09T07:28:52.507Z,1.80
2017-06-09T07:31:20.951Z,1.80
2017-06-09T07:33:49.378Z,1.87
2017-06-09T07:36:18.512Z,1.77
2017-06-09T07:38:46.931Z,1.73
2017-06-09T07:41:15.355Z,1.60
2017-06-09T07:43:43.798Z,1.83
2017-06-09T07:46:12.228Z,1.80
2017-06-09T07:48:40.692Z,1.87
2017-06-09T07:51:09.119Z,1.50
2017-06-09T07:53:37.523Z,1.60
2017-06-09T07:56:06.655Z,1.80
2017-06-09T07:58:35.083Z,1.67
2017-06-09T08:01:03.656Z,1.40
2017-06-09T08:03:32.098Z,1.67
2017-06-09T08:06:00.542Z,1.60
2017-06-09T08:08:28.971Z,1.70
2017-06-09T08:10:57.390Z,1.90
2017-06-09T08:13:25.891Z,1.73
2017-06-09T08:15:54.318Z,1.80
2017-06-09T08:18:22.750Z,1.80
2017-06-09T08:20:51.221Z,1.80
2017-06-09T08:23:19.655Z,2.00
2017-06-09T08:25:48.759Z,2.40
2017-06-09T08:28:17.209Z,2.10
2017-06-09T08:30:45.676Z,2.40
2017-06-09T08:33:14.087Z,2.33
2017-06-09T08:35:42.531Z,2.90
2017-06-09T08:38:10.981Z,3.33
2017-06-09T08:40:39.434Z,10.00
2017-06-09T08:43:07.854Z,7.20
2017-06-09T08:45:36.409Z,3.17
2017-06-09T08:48:04.844Z,2.90
2017-06-09T08:50:33.268Z,2.40
2017-06-09T08:53:01.712Z,2.40
2017-06-09T08:55:30.203Z,1.90
2017-06-09T08:57:58.647Z,2.40
2017-06-09T09:00:27.074Z,2.10
2017-06-09T09:02:55.531Z,2.20
2017-06-09T09:05:23.956Z,2.83
2017-06-09T09:07:52.465Z,2.40
2017-06-09T09:10:20.879Z,2.37
2017-06-09T09:12:49.311Z,2.40
2017-06-09T09:15:17.847Z,3.07
2017-06-09T09:17:46.299Z,2.33
2017-06-09T09:20:14.726Z,2.30
2017-06-09T09:22:43.168Z,2.67
2017-06-09T09:25:11.591Z,2.30
2017-06-09T09:27:40.138Z,2.30
2017-06-09T09:30:08.559Z,2.40
2017-06-09T09:32:37.020Z,2.73
2017-06-09T09:35:05.455Z,2.10
2017-06-09T09:37:33.913Z,2.30
2017-06-09T09:40:02.342Z,2.13
2017-06-09T09:42:30.791Z,1.70
2017-06-09T09:44:59.503Z,1.70
2017-06-09T09:47:27.927Z,1.97
2017-06-09T09:49:56.383Z,1.80
2017-06-09T09:52:24.808Z,1.73
2017-06-09T09:54:53.235Z,1.93
2017-06-09T09:57:21.671Z,2.10
2017-06-09T09:59:50.207Z,2.30
2017-06-09T10:02:18.983Z,2.10
2017-06-09T10:04:47.390Z,2.07
2017-06-09T10:07:15.951Z,2.20
2017-06-09T10:09:44.388Z,2.17
2017-06-09T10:12:12.811Z,2.80
2017-06-09T10:14:41.266Z,2.13
2017-06-09T10:17:10.392Z,1.87
2017-06-09T10:19:38.839Z,1.90
2017-06-09T10:22:07.675Z,1.93
2017-06-09T10:24:36.104Z,2.50
2017-06-09T10:27:04.544Z,2.37
2017-06-09T10:29:33.674Z,2.60
2017-06-09T10:32:02.101Z,3.97
2017-06-09T10:34:30.535Z,2.07
2017-06-09T10:36:59.756Z,2.10
2017-06-09T10:39:28.293Z,2.50
2017-06-09T10:41:56.723Z,2.17
2017-06-09T10:44:25.191Z,3.17
2017-06-09T10:46:53.895Z,2.10
2017-06-09T10:49:22.355Z,2.00
2017-06-09T10:51:51.592Z,2.40
2017-06-09T10:54:20.110Z,3.03
2017-06-09T10:56:48.566Z,2.33
2017-06-09T10:59:17.003Z,2.40
2017-06-09T11:01:46.316Z,2.67
2017-06-09T11:04:14.775Z,2.70
2017-06-09T11:06:43.194Z,2.20
2017-06-09T11:09:11.651Z,3.47
2017-06-09T11:11:40.962Z,4.20
2017-06-09T11:14:10.167Z,3.80
2017-06-09T11:16:38.228Z,3.33
2017-06-09T11:19:07.087Z,3.77
2017-06-09T11:21:35.180Z,4.07
2017-06-09T11:24:03.607Z,2.80
2017-06-09T11:26:32.229Z,2.50
2017-06-09T11:31:29.193Z,2.63
2017-06-09T11:33:57.603Z,2.43
2017-06-09T11:36:26.814Z,3.10
2017-06-09T11:38:55.355Z,2.60
2017-06-09T11:41:23.791Z,2.80
2017-06-09T11:43:51.886Z,2.63
2017-06-09T11:46:20.403Z,3.07
2017-06-09T11:48:48.151Z,2.63
2017-06-09T11:51:16.591Z,3.03
2017-06-09T11:53:44.661Z,3.00
2017-06-09T11:56:13.119Z,3.80
2017-06-09T11:58:41.983Z,2.80
2017-06-09T12:01:10.434Z,2.60
2017-06-09T12:03:38.885Z,3.10
2017-06-09T12:06:08.116Z,3.10
2017-06-09T12:08:36.592Z,3.00
2017-06-09T12:11:05.029Z,3.30
2017-06-09T12:13:33.442Z,2.87
2017-06-09T12:16:01.890Z,2.80
2017-06-09T12:18:31.100Z,3.70
2017-06-09T12:21:00.304Z,3.13
2017-06-09T12:23:29.512Z,2.97
2017-06-09T12:25:57.993Z,3.20
2017-06-09T12:28:26.450Z,3.20
2017-06-09T12:30:54.895Z,3.70
2017-06-09T12:33:23.339Z,3.40
2017-06-09T12:35:51.766Z,3.73
2017-06-09T12:38:20.194Z,3.47
2017-06-09T12:40:49.501Z,3.67
2017-06-09T12:43:18.692Z,3.83
2017-06-09T12:45:47.895Z,3.13
2017-06-09T12:48:17.100Z,3.70
2017-06-09T12:50:45.535Z,3.17
2017-06-09T12:53:13.962Z,3.50
2017-06-09T12:55:42.218Z,3.57
2017-06-09T12:58:10.655Z,3.03
2017-06-09T13:00:39.094Z,2.60
2017-06-09T13:03:08.299Z,2.60
2017-06-09T13:05:37.667Z,2.50
2017-06-09T13:08:06.117Z,2.97
2017-06-09T13:10:34.537Z,2.80
2017-06-09T13:13:02.983Z,2.70
2017-06-09T13:15:31.511Z,3.33
2017-06-09T13:17:59.738Z,2.33
2017-06-09T13:20:28.186Z,3.27
2017-06-09T13:22:57.378Z,2.00
2017-06-09T13:25:26.575Z,2.80
2017-06-09T13:27:55.899Z,2.40
2017-06-09T13:30:24.378Z,2.70
2017-06-09T13:32:53.495Z,2.50
2017-06-09T13:35:21.927Z,3.03
2017-06-09T13:37:50.439Z,2.60
2017-06-09T13:40:18.893Z,2.30
2017-06-09T13:42:47.311Z,2.53
2017-06-09T13:45:15.727Z,2.70
2017-06-09T13:47:44.175Z,2.80
2017-06-09T13:50:12.602Z,2.80
2017-06-09T13:52:41.019Z,2.83
2017-06-09T13:55:09.471Z,2.60
2017-06-09T13:57:37.976Z,2.53
2017-06-09T14:00:07.183Z,3.00
2017-06-09T14:02:36.372Z,3.00
2017-06-09T14:05:05.591Z,2.80
2017-06-09T14:07:35.467Z,2.40
2017-06-09T14:10:03.926Z,2.37
2017-06-09T14:12:32.351Z,2.67
2017-06-09T14:15:01.550Z,2.37
2017-06-09T14:17:30.771Z,2.40
2017-06-09T14:19:59.274Z,2.17
2017-06-09T14:22:27.722Z,2.20
2017-06-09T14:24:56.271Z,2.20
2017-06-09T14:27:24.762Z,2.00
2017-06-09T14:29:53.210Z,2.20
2017-06-09T14:32:21.651Z,2.00
2017-06-09T14:34:50.839Z,2.10
2017-06-09T14:37:20.036Z,2.00
2017-06-09T14:39:49.382Z,1.97
2017-06-09T14:42:18.011Z,1.90
2017-06-09T14:44:46.545Z,2.07
2017-06-09T14:47:14.783Z,1.97
2017-06-09T14:49:43.811Z,2.43
2017-06-09T14:52:12.235Z,1.73
2017-06-09T14:54:40.722Z,2.37
2017-06-09T14:57:09.134Z,1.60
2017-06-09T14:59:38.351Z,1.93
2017-06-09T15:02:06.826Z,1.87
2017-06-09T15:04:36.007Z,2.03
2017-06-09T15:07:05.323Z,1.90
2017-06-09T15:09:33.763Z,2.10
2017-06-09T15:12:03.103Z,1.90
2017-06-09T15:14:31.568Z,2.17
2017-06-09T15:17:00.755Z,1.67
2017-06-09T15:19:29.186Z,1.90
2017-06-09T15:21:57.649Z,2.10
2017-06-09T15:24:26.943Z,2.10
2017-06-09T15:26:56.122Z,1.53
2017-06-09T15:29:24.612Z,2.00
2017-06-09T15:31:53.963Z,2.00
2017-06-09T15:34:22.410Z,1.83
2017-06-09T15:36:51.610Z,2.13
2017-06-09T15:39:20.795Z,1.97
2017-06-09T15:41:50.021Z,2.00
2017-06-09T15:44:18.498Z,1.90
2017-06-09T15:46:46.954Z,2.27
2017-06-09T15:49:15.459Z,1.87
2017-06-09T15:51:44.679Z,2.30
2017-06-09T15:54:13.123Z,2.40
2017-06-09T15:56:42.311Z,2.20
2017-06-09T15:59:10.745Z,2.10
2017-06-09T16:01:39.162Z,1.90
2017-06-09T16:04:07.599Z,2.37
2017-06-09T16:06:37.468Z,2.47
2017-06-09T16:09:05.975Z,2.60
2017-06-09T16:11:35.163Z,2.17
2017-06-09T16:14:04.383Z,2.70
2017-06-09T16:16:32.863Z,2.63
2017-06-09T16:19:01.306Z,2.70
2017-06-09T16:21:29.745Z,2.90
2017-06-09T16:23:58.163Z,2.60
2017-06-09T16:26:26.653Z,2.90
2017-06-09T16:28:55.071Z,2.50
2017-06-09T16:31:23.498Z,2.13
2017-06-09T16:33:52.865Z,2.30
2017-06-09T16:36:21.271Z,2.60
2017-06-09T16:38:49.707Z,2.37
2017-06-09T16:41:18.904Z,2.83
2017-06-09T16:43:48.124Z,2.53
2017-06-09T16:46:16.556Z,1.93
2017-06-09T16:48:45.012Z,2.67
2017-06-09T16:51:13.560Z,2.37
2017-06-09T16:53:41.996Z,2.30
2017-06-09T16:56:10.526Z,2.00
2017-06-09T16:58:38.979Z,2.47
2017-06-09T17:01:07.422Z,2.17
2017-06-09T17:03:35.879Z,2.60
2017-06-09T17:06:04.312Z,3.90
2017-06-09T17:08:32.761Z,2.40
2017-06-09T17:11:01.211Z,3.60
2017-06-09T17:13:30.532Z,3.40
2017-06-09T17:15:58.984Z,2.10
2017-06-09T17:18:28.189Z,2.50
2017-06-09T17:20:57.437Z,2.80
2017-06-09T17:23:25.883Z,2.20
2017-06-09T17:25:54.331Z,2.33
2017-06-09T17:28:22.956Z,3.20
2017-06-09T17:30:51.416Z,2.57
2017-06-09T17:33:20.625Z,2.40
2017-06-09T17:35:49.848Z,3.13
2017-06-09T17:38:18.292Z,2.87
2017-06-09T17:40:47.507Z,3.40
2017-06-09T17:43:16.698Z,2.70
2017-06-09T17:45:45.909Z,2.60
2017-06-09T17:48:14.357Z,3.00
2017-06-09T17:50:42.804Z,3.60
2017-06-09T17:53:11.236Z,3.50
2017-06-09T17:55:40.440Z,4.27
2017-06-09T17:58:09.634Z,2.53
2017-06-09T18:00:38.889Z,3.10
2017-06-09T18:03:07.328Z,2.30
2017-06-09T18:05:36.528Z,2.70
2017-06-09T18:08:04.976Z,2.07
2017-06-09T18:10:33.438Z,1.87
2017-06-09T18:13:01.864Z,1.93
2017-06-09T18:15:31.091Z,1.93
2017-06-09T18:17:59.545Z,1.67
2017-06-09T18:20:28.757Z,1.90
2017-06-09T18:22:57.207Z,1.80
2017-06-09T18:25:25.667Z,1.70
2017-06-09T18:27:54.113Z,1.70
2017-06-09T18:30:22.557Z,2.00
2017-06-09T18:32:51.683Z,2.13
2017-06-09T18:35:20.111Z,1.50
2017-06-09T18:37:48.755Z,1.60
2017-06-09T18:40:17.191Z,1.63
2017-06-09T18:42:45.655Z,2.20
2017-06-09T18:45:13.715Z,1.10
2017-06-09T18:47:42.159Z,1.50
2017-06-09T18:50:11.457Z,1.40
2017-06-09T18:52:39.769Z,1.40
2017-06-09T18:55:08.220Z,1.60
2017-06-09T18:57:37.444Z,1.30
2017-06-09T19:00:05.873Z,1.07
2017-06-09T19:02:34.396Z,1.30
2017-06-09T19:05:02.839Z,1.43
2017-06-09T19:07:31.276Z,1.27
2017-06-09T19:09:59.723Z,1.53
2017-06-09T19:12:28.926Z,1.30
2017-06-09T19:14:58.115Z,1.40
2017-06-09T19:17:26.528Z,1.30
2017-06-09T19:19:54.958Z,1.40
2017-06-09T19:22:23.396Z,1.37
2017-06-09T19:24:51.839Z,2.00
2017-06-09T19:27:20.671Z,1.10
2017-06-09T19:29:49.099Z,1.50
2017-06-09T19:32:17.563Z,1.53
2017-06-09T19:34:46.003Z,1.50
2017-06-09T19:37:15.231Z,1.50
2017-06-09T19:39:43.703Z,1.73
2017-06-09T19:42:12.148Z,2.13
2017-06-09T19:44:41.331Z,2.27
2017-06-09T19:47:09.755Z,1.90
2017-06-09T19:49:38.251Z,1.77
2017-06-09T19:52:06.802Z,1.90
2017-06-09T19:54:36.025Z,2.30
2017-06-09T19:57:04.456Z,2.30
2017-06-09T19:59:33.303Z,2.07
2017-06-09T20:02:01.740Z,2.70
2017-06-09T20:04:30.947Z,2.50
2017-06-09T20:07:00.142Z,2.60
2017-06-09T20:09:29.339Z,2.70
2017-06-09T20:11:58.555Z,2.63
2017-06-09T20:14:26.992Z,3.40
2017-06-09T20:16:55.436Z,3.07
2017-06-09T20:19:23.863Z,3.23
2017-06-09T20:21:52.295Z,3.40
2017-06-09T20:24:20.743Z,3.83
2017-06-09T20:26:49.927Z,4.20
2017-06-09T20:29:18.379Z,3.43
2017-06-09T20:31:46.807Z,3.07
2017-06-09T20:34:16.027Z,2.80
2017-06-09T20:36:44.447Z,3.23
2017-06-09T20:39:13.088Z,2.90
2017-06-09T20:41:41.554Z,4.10
2017-06-09T20:44:09.967Z,3.40
2017-06-09T20:46:38.408Z,4.00
2017-06-09T20:49:06.927Z,4.70
2017-06-09T20:51:35.347Z,4.73
2017-06-09T20:54:03.767Z,3.57
2017-06-09T20:56:33.009Z,4.80
2017-06-09T20:59:01.443Z,4.37
2017-06-09T21:01:30.678Z,3.23
2017-06-09T21:03:59.127Z,4.60
2017-06-09T21:06:28.344Z,5.30
2017-06-09T21:08:56.744Z,5.00
2017-06-09T21:11:25.247Z,5.23
2017-06-09T21:13:53.635Z,5.60
2017-06-09T21:16:22.154Z,4.50
2017-06-09T21:18:51.475Z,4.10
2017-06-09T21:21:19.927Z,4.43
2017-06-09T21:23:48.464Z,5.23
2017-06-09T21:26:16.905Z,4.50
2017-06-09T21:28:45.328Z,5.50
2017-06-09T21:31:14.438Z,5.17
2017-06-09T21:33:42.881Z,5.40
2017-06-09T21:36:12.087Z,5.90
2017-06-09T21:38:40.543Z,5.90
2017-06-09T21:41:09.775Z,5.67
2017-06-09T21:43:38.217Z,6.20
2017-06-09T21:46:07.346Z,5.80
2017-06-09T21:48:35.782Z,6.30
2017-06-09T21:51:04.207Z,4.80
2017-06-09T21:53:32.758Z,5.57
2017-06-09T21:56:01.280Z,5.43
2017-06-09T21:58:29.728Z,5.00
2017-06-09T22:00:58.148Z,5.10
2017-06-09T22:03:26.581Z,5.70
2017-06-09T22:05:55.019Z,4.93
2017-06-09T22:08:23.478Z,5.23
2017-06-09T22:10:51.958Z,5.33
2017-06-09T22:13:20.422Z,4.03
2017-06-09T22:15:48.852Z,4.10
2017-06-09T22:18:17.303Z,5.10
2017-06-09T22:20:46.707Z,5.50
2017-06-09T22:23:15.171Z,4.30
2017-06-09T22:25:44.464Z,5.07
2017-06-09T22:28:12.922Z,4.50
2017-06-09T22:30:42.051Z,4.93
2017-06-09T22:33:10.490Z,5.20
2017-06-09T22:35:38.935Z,5.30
2017-06-09T22:38:07.383Z,4.20
2017-06-09T22:40:35.823Z,5.00
2017-06-09T22:43:04.268Z,4.83
2017-06-09T22:45:33.454Z,4.97
2017-06-09T22:48:02.684Z,4.90
2017-06-09T22:50:31.228Z,4.83
2017-06-09T22:52:59.667Z,5.30
2017-06-09T22:55:28.095Z,5.30
2017-06-09T22:57:56.519Z,4.80
2017-06-09T23:00:24.963Z,6.30
2017-06-09T23:02:54.257Z,5.20
2017-06-09T23:05:22.695Z,4.87
2017-06-09T23:07:51.262Z,5.27
2017-06-09T23:10:19.699Z,5.23
2017-06-09T23:12:48.128Z,4.97
2017-06-09T23:15:16.550Z,5.07
2017-06-09T23:17:45.207Z,5.40
2017-06-09T23:20:13.563Z,5.13
2017-06-09T23:22:47.638Z,6.30
2017-06-09T23:25:15.867Z,5.27
2017-06-09T23:27:44.115Z,5.70
2017-06-09T23:30:13.039Z,5.40
2017-06-09T23:32:41.291Z,6.27
2017-06-09T23:35:25.344Z,6.20
2017-06-09T23:37:54.458Z,6.10
2017-06-09T23:40:22.887Z,5.47
2017-06-09T23:42:51.332Z,5.90
2017-06-09T23:45:19.778Z,6.20
2017-06-09T23:47:48.983Z,5.00
2017-06-09T23:50:17.442Z,5.67
2017-06-09T23:52:45.867Z,6.40
2017-06-09T23:55:14.287Z,6.53
2017-06-09T23:57:42.708Z,5.97
